Главная страница
METAR-TAF:

METAR-TAF

Аэропорты :

Бёрлингтон, Вермонт, США

широта: 44-28-05N, долгота: 073-09-01W, высота над уровнем моря: 101 м

Текущие метеонаблюдения

Эта сводка был подготовлена 33 минут назад, в 09:54 UTC
Ветер 8 Узел от южный
Температура 14°C
Влажность 88%
Давление 1012 hPa
Видимость: 16.1 км
небольшая облачность на высоте 6000 фута

METAR: KBTV 240954Z 18008KT 10SM FEW060 14/12 A2987 RMK AO2 SLP115 T01440117

Время: 06:27 (10:27 UTC)

Прогноз

Эта сводка был подготовлена 5 часа и 7 минут назад, в 05:20 UTC
Прогноз действительный с 24-го 06 UTC до 25-го 06 UTC
Ветер 3 Узел переменных направлений
Видимость: 10 км
небольшая облачность на высоте 6000 фута
С 24-го 1500 UTC
Ветер 5 Узел от западный-юго-западный
Видимость: 10 км
Отдельные облака на высоте 9000 фута
С 24-го 1900 UTC
Ветер 5 Узел от западно-северо-западный
Видимость: 10 км
Отдельные облака на высоте 8000 фута

TAF: KBTV 240520Z 2406/2506 VRB03KT P6SM FEW060 FM241500 24005KT P6SM SCT090 FM241900 30005KT P6SM SCT080

Метеонаблюдения и прогнозы для более 4000 аэропортов (сводки METAR и TAF).

Имеющиеся станции представлены на карте желтыми и красными точками.

Чтобы увидеть название станции, наведите на нее мышь.

Затем щелкните, чтобы увидеть метеонаблюдения и метеопрогнозы.

Управление картой: чтобы увеличить масштаб, щелкните зеленые кнопки с черным крестиком; чтобы уменьшить масштаб, щелкните зеленую кнопку с тире; для просмотра соседних карт щелкайте зеленые стрелки.


METAR-TAF: